sensor_id;sensor_type;location;lat;lon;timestamp;P1;durP1;ratioP1;P2;durP2;ratioP2
32393;SDS011;18853;45.426;9.206;2022-11-20T00:00:28;20.55;;;17.33;;
32393;SDS011;18853;45.426;9.206;2022-11-20T00:02:54;18.42;;;15.75;;
32393;SDS011;18853;45.426;9.206;2022-11-20T00:05:19;20.67;;;17.50;;
32393;SDS011;18853;45.426;9.206;2022-11-20T00:07:45;20.17;;;17.63;;
32393;SDS011;18853;45.426;9.206;2022-11-20T00:10:11;22.02;;;17.67;;
32393;SDS011;18853;45.426;9.206;2022-11-20T00:12:37;23.33;;;18.08;;
32393;SDS011;18853;45.426;9.206;2022-11-20T00:15:03;23.40;;;18.90;;
32393;SDS011;18853;45.426;9.206;2022-11-20T00:17:29;22.92;;;19.23;;
32393;SDS011;18853;45.426;9.206;2022-11-20T00:19:54;24.65;;;19.73;;
32393;SDS011;18853;45.426;9.206;2022-11-20T00:22:20;24.98;;;20.00;;
32393;SDS011;18853;45.426;9.206;2022-11-20T00:24:46;43.17;;;21.98;;
32393;SDS011;18853;45.426;9.206;2022-11-20T00:27:11;94.25;;;23.58;;
32393;SDS011;18853;45.426;9.206;2022-11-20T00:29:37;27.27;;;21.77;;
32393;SDS011;18853;45.426;9.206;2022-11-20T00:32:02;30.25;;;22.77;;
32393;SDS011;18853;45.426;9.206;2022-11-20T00:34:28;30.25;;;21.88;;
32393;SDS011;18853;45.426;9.206;2022-11-20T00:36:54;51.53;;;21.75;;
32393;SDS011;18853;45.426;9.206;2022-11-20T00:39:19;25.05;;;19.58;;
32393;SDS011;18853;45.426;9.206;2022-11-20T00:41:45;26.77;;;21.00;;
32393;SDS011;18853;45.426;9.206;2022-11-20T00:44:10;23.17;;;19.02;;
32393;SDS011;18853;45.426;9.206;2022-11-20T00:46:36;22.65;;;19.00;;
32393;SDS011;18853;45.426;9.206;2022-11-20T00:49:01;31.63;;;20.33;;
32393;SDS011;18853;45.426;9.206;2022-11-20T00:51:27;23.83;;;18.70;;
32393;SDS011;18853;45.426;9.206;2022-11-20T00:53:56;22.38;;;18.73;;
32393;SDS011;18853;45.426;9.206;2022-11-20T00:56:23;22.75;;;18.58;;
32393;SDS011;18853;45.426;9.206;2022-11-20T00:58:48;23.90;;;19.63;;
32393;SDS011;18853;45.426;9.206;2022-11-20T01:01:18;22.48;;;18.48;;
32393;SDS011;18853;45.426;9.206;2022-11-20T01:03:49;21.90;;;18.08;;
32393;SDS011;18853;45.426;9.206;2022-11-20T01:06:17;21.77;;;17.88;;
32393;SDS011;18853;45.426;9.206;2022-11-20T01:08:45;22.23;;;18.05;;
32393;SDS011;18853;45.426;9.206;2022-11-20T01:11:12;20.92;;;17.20;;
32393;SDS011;18853;45.426;9.206;2022-11-20T01:13:40;22.90;;;17.92;;
32393;SDS011;18853;45.426;9.206;2022-11-20T01:18:34;21.13;;;16.77;;
32393;SDS011;18853;45.426;9.206;2022-11-20T01:21:04;18.75;;;15.85;;
32393;SDS011;18853;45.426;9.206;2022-11-20T01:23:42;19.20;;;15.80;;
32393;SDS011;18853;45.426;9.206;2022-11-20T01:26:09;19.70;;;16.42;;
32393;SDS011;18853;45.426;9.206;2022-11-20T01:28:36;20.75;;;17.30;;
32393;SDS011;18853;45.426;9.206;2022-11-20T01:31:13;20.85;;;17.42;;
32393;SDS011;18853;45.426;9.206;2022-11-20T01:33:44;21.40;;;17.38;;
32393;SDS011;18853;45.426;9.206;2022-11-20T01:36:10;21.58;;;17.10;;
32393;SDS011;18853;45.426;9.206;2022-11-20T01:38:37;20.65;;;16.98;;
32393;SDS011;18853;45.426;9.206;2022-11-20T01:41:03;20.60;;;16.42;;
32393;SDS011;18853;45.426;9.206;2022-11-20T01:43:30;21.50;;;17.77;;
32393;SDS011;18853;45.426;9.206;2022-11-20T01:48:25;22.65;;;17.60;;
32393;SDS011;18853;45.426;9.206;2022-11-20T01:50:56;22.27;;;18.17;;
32393;SDS011;18853;45.426;9.206;2022-11-20T01:53:25;20.88;;;17.02;;
32393;SDS011;18853;45.426;9.206;2022-11-20T01:55:57;22.15;;;17.20;;
32393;SDS011;18853;45.426;9.206;2022-11-20T01:58:30;22.83;;;17.98;;
32393;SDS011;18853;45.426;9.206;2022-11-20T02:00:58;19.10;;;16.33;;
32393;SDS011;18853;45.426;9.206;2022-11-20T02:03:24;20.50;;;16.55;;
32393;SDS011;18853;45.426;9.206;2022-11-20T02:08:21;19.63;;;16.65;;
32393;SDS011;18853;45.426;9.206;2022-11-20T02:10:48;20.08;;;16.17;;
32393;SDS011;18853;45.426;9.206;2022-11-20T02:13:13;19.73;;;15.63;;
32393;SDS011;18853;45.426;9.206;2022-11-20T02:15:58;20.27;;;16.38;;
32393;SDS011;18853;45.426;9.206;2022-11-20T02:18:23;18.23;;;15.15;;
32393;SDS011;18853;45.426;9.206;2022-11-20T02:20:53;20.02;;;16.50;;
32393;SDS011;18853;45.426;9.206;2022-11-20T02:23:32;19.67;;;16.25;;
32393;SDS011;18853;45.426;9.206;2022-11-20T02:26:05;18.85;;;15.82;;
32393;SDS011;18853;45.426;9.206;2022-11-20T02:28:35;17.95;;;15.93;;
32393;SDS011;18853;45.426;9.206;2022-11-20T02:31:01;18.00;;;15.23;;
32393;SDS011;18853;45.426;9.206;2022-11-20T02:33:26;18.55;;;15.45;;
32393;SDS011;18853;45.426;9.206;2022-11-20T02:35:52;18.23;;;15.05;;
32393;SDS011;18853;45.426;9.206;2022-11-20T02:38:17;21.38;;;16.17;;
32393;SDS011;18853;45.426;9.206;2022-11-20T02:40:43;19.95;;;16.40;;
32393;SDS011;18853;45.426;9.206;2022-11-20T02:43:09;23.98;;;17.70;;
32393;SDS011;18853;45.426;9.206;2022-11-20T02:45:35;24.38;;;18.08;;
32393;SDS011;18853;45.426;9.206;2022-11-20T02:48:00;22.63;;;17.30;;
32393;SDS011;18853;45.426;9.206;2022-11-20T02:50:26;25.17;;;18.83;;
32393;SDS011;18853;45.426;9.206;2022-11-20T02:52:52;23.83;;;17.73;;
32393;SDS011;18853;45.426;9.206;2022-11-20T02:55:17;19.48;;;16.40;;
32393;SDS011;18853;45.426;9.206;2022-11-20T02:57:43;17.38;;;14.45;;
32393;SDS011;18853;45.426;9.206;2022-11-20T03:00:09;16.70;;;14.25;;
32393;SDS011;18853;45.426;9.206;2022-11-20T03:02:35;15.55;;;13.95;;
32393;SDS011;18853;45.426;9.206;2022-11-20T03:05:00;14.65;;;13.10;;
32393;SDS011;18853;45.426;9.206;2022-11-20T03:07:26;14.63;;;12.77;;
32393;SDS011;18853;45.426;9.206;2022-11-20T03:09:52;14.32;;;12.82;;
32393;SDS011;18853;45.426;9.206;2022-11-20T03:12:17;13.93;;;12.30;;
32393;SDS011;18853;45.426;9.206;2022-11-20T03:14:43;14.02;;;12.52;;
32393;SDS011;18853;45.426;9.206;2022-11-20T03:17:08;13.90;;;12.50;;
32393;SDS011;18853;45.426;9.206;2022-11-20T03:19:34;15.25;;;12.90;;
32393;SDS011;18853;45.426;9.206;2022-11-20T03:22:00;14.82;;;12.73;;
32393;SDS011;18853;45.426;9.206;2022-11-20T03:24:26;14.90;;;12.50;;
32393;SDS011;18853;45.426;9.206;2022-11-20T03:26:52;13.40;;;11.98;;
32393;SDS011;18853;45.426;9.206;2022-11-20T03:29:17;14.00;;;12.55;;
32393;SDS011;18853;45.426;9.206;2022-11-20T03:31:43;13.77;;;12.23;;
32393;SDS011;18853;45.426;9.206;2022-11-20T03:34:09;12.90;;;11.60;;
32393;SDS011;18853;45.426;9.206;2022-11-20T03:36:39;12.85;;;11.50;;
32393;SDS011;18853;45.426;9.206;2022-11-20T03:39:06;13.35;;;11.90;;
32393;SDS011;18853;45.426;9.206;2022-11-20T03:41:35;13.15;;;11.73;;
32393;SDS011;18853;45.426;9.206;2022-11-20T03:44:02;13.38;;;11.98;;
32393;SDS011;18853;45.426;9.206;2022-11-20T03:46:30;14.07;;;12.43;;
32393;SDS011;18853;45.426;9.206;2022-11-20T03:48:57;14.57;;;13.00;;
32393;SDS011;18853;45.426;9.206;2022-11-20T03:51:24;14.60;;;13.10;;
32393;SDS011;18853;45.426;9.206;2022-11-20T03:53:58;17.25;;;13.35;;
32393;SDS011;18853;45.426;9.206;2022-11-20T03:56:26;17.58;;;13.40;;
32393;SDS011;18853;45.426;9.206;2022-11-20T03:58:53;15.05;;;13.02;;
32393;SDS011;18853;45.426;9.206;2022-11-20T04:01:21;17.05;;;13.38;;
32393;SDS011;18853;45.426;9.206;2022-11-20T04:03:47;18.98;;;15.55;;
32393;SDS011;18853;45.426;9.206;2022-11-20T04:06:16;20.70;;;15.18;;
32393;SDS011;18853;45.426;9.206;2022-11-20T04:08:46;17.48;;;14.32;;
32393;SDS011;18853;45.426;9.206;2022-11-20T04:11:23;20.40;;;15.70;;
32393;SDS011;18853;45.426;9.206;2022-11-20T04:13:54;19.92;;;14.65;;
32393;SDS011;18853;45.426;9.206;2022-11-20T04:16:23;17.45;;;14.30;;
32393;SDS011;18853;45.426;9.206;2022-11-20T04:18:53;16.73;;;13.93;;
32393;SDS011;18853;45.426;9.206;2022-11-20T04:21:20;17.27;;;14.60;;
32393;SDS011;18853;45.426;9.206;2022-11-20T04:23:46;18.83;;;13.93;;
32393;SDS011;18853;45.426;9.206;2022-11-20T04:26:11;16.05;;;13.85;;
32393;SDS011;18853;45.426;9.206;2022-11-20T04:28:37;16.23;;;13.55;;
32393;SDS011;18853;45.426;9.206;2022-11-20T04:31:23;16.20;;;13.25;;
32393;SDS011;18853;45.426;9.206;2022-11-20T04:33:51;17.30;;;14.18;;
32393;SDS011;18853;45.426;9.206;2022-11-20T04:36:18;15.10;;;13.02;;
32393;SDS011;18853;45.426;9.206;2022-11-20T04:38:44;16.98;;;13.75;;
32393;SDS011;18853;45.426;9.206;2022-11-20T04:41:19;17.25;;;13.60;;
32393;SDS011;18853;45.426;9.206;2022-11-20T04:43:50;14.85;;;12.48;;
32393;SDS011;18853;45.426;9.206;2022-11-20T04:46:17;13.85;;;11.93;;
32393;SDS011;18853;45.426;9.206;2022-11-20T04:48:44;13.38;;;11.98;;
32393;SDS011;18853;45.426;9.206;2022-11-20T04:51:10;12.93;;;11.13;;
32393;SDS011;18853;45.426;9.206;2022-11-20T04:53:35;16.95;;;12.77;;
32393;SDS011;18853;45.426;9.206;2022-11-20T04:56:02;17.40;;;13.48;;
32393;SDS011;18853;45.426;9.206;2022-11-20T04:58:28;12.32;;;10.98;;
32393;SDS011;18853;45.426;9.206;2022-11-20T05:01:00;14.68;;;11.95;;
32393;SDS011;18853;45.426;9.206;2022-11-20T05:03:27;12.07;;;10.82;;
32393;SDS011;18853;45.426;9.206;2022-11-20T05:05:52;11.90;;;10.55;;
32393;SDS011;18853;45.426;9.206;2022-11-20T05:08:18;13.85;;;10.93;;
32393;SDS011;18853;45.426;9.206;2022-11-20T05:10:43;13.30;;;11.15;;
32393;SDS011;18853;45.426;9.206;2022-11-20T05:13:09;14.32;;;12.23;;
32393;SDS011;18853;45.426;9.206;2022-11-20T05:15:35;14.35;;;11.68;;
32393;SDS011;18853;45.426;9.206;2022-11-20T05:18:00;13.73;;;11.60;;
32393;SDS011;18853;45.426;9.206;2022-11-20T05:20:26;14.32;;;12.07;;
32393;SDS011;18853;45.426;9.206;2022-11-20T05:22:51;14.73;;;11.90;;
32393;SDS011;18853;45.426;9.206;2022-11-20T05:25:17;16.63;;;12.10;;
32393;SDS011;18853;45.426;9.206;2022-11-20T05:27:42;14.68;;;12.43;;
32393;SDS011;18853;45.426;9.206;2022-11-20T05:30:08;13.85;;;11.70;;
32393;SDS011;18853;45.426;9.206;2022-11-20T05:32:34;14.88;;;12.80;;
32393;SDS011;18853;45.426;9.206;2022-11-20T05:35:00;14.82;;;12.48;;
32393;SDS011;18853;45.426;9.206;2022-11-20T05:37:25;13.95;;;11.80;;
32393;SDS011;18853;45.426;9.206;2022-11-20T05:39:51;15.30;;;11.70;;
32393;SDS011;18853;45.426;9.206;2022-11-20T05:42:16;14.20;;;11.85;;
32393;SDS011;18853;45.426;9.206;2022-11-20T05:44:57;14.15;;;11.55;;
32393;SDS011;18853;45.426;9.206;2022-11-20T05:47:24;14.57;;;12.98;;
32393;SDS011;18853;45.426;9.206;2022-11-20T05:49:50;15.82;;;12.90;;
32393;SDS011;18853;45.426;9.206;2022-11-20T05:52:16;15.65;;;12.63;;
32393;SDS011;18853;45.426;9.206;2022-11-20T05:54:42;17.63;;;12.85;;
32393;SDS011;18853;45.426;9.206;2022-11-20T05:57:07;17.17;;;13.18;;
32393;SDS011;18853;45.426;9.206;2022-11-20T05:59:33;18.27;;;12.68;;
32393;SDS011;18853;45.426;9.206;2022-11-20T06:01:58;15.02;;;12.32;;
32393;SDS011;18853;45.426;9.206;2022-11-20T06:04:24;14.85;;;12.55;;
32393;SDS011;18853;45.426;9.206;2022-11-20T06:06:50;16.15;;;12.57;;
32393;SDS011;18853;45.426;9.206;2022-11-20T06:09:15;16.63;;;13.32;;
32393;SDS011;18853;45.426;9.206;2022-11-20T06:11:41;17.25;;;12.98;;
32393;SDS011;18853;45.426;9.206;2022-11-20T06:14:06;13.93;;;11.75;;
32393;SDS011;18853;45.426;9.206;2022-11-20T06:16:32;14.25;;;12.25;;
32393;SDS011;18853;45.426;9.206;2022-11-20T06:18:57;15.20;;;12.15;;
32393;SDS011;18853;45.426;9.206;2022-11-20T06:21:23;14.70;;;12.18;;
32393;SDS011;18853;45.426;9.206;2022-11-20T06:23:49;16.00;;;12.02;;
32393;SDS011;18853;45.426;9.206;2022-11-20T06:26:20;16.00;;;13.68;;
32393;SDS011;18853;45.426;9.206;2022-11-20T06:28:48;16.05;;;13.00;;
32393;SDS011;18853;45.426;9.206;2022-11-20T06:31:14;17.67;;;12.95;;
32393;SDS011;18853;45.426;9.206;2022-11-20T06:33:41;17.80;;;13.63;;
32393;SDS011;18853;45.426;9.206;2022-11-20T06:36:09;20.08;;;15.05;;
32393;SDS011;18853;45.426;9.206;2022-11-20T06:38:37;19.55;;;14.38;;
32393;SDS011;18853;45.426;9.206;2022-11-20T06:41:04;19.45;;;14.38;;
32393;SDS011;18853;45.426;9.206;2022-11-20T06:43:30;18.20;;;14.43;;
32393;SDS011;18853;45.426;9.206;2022-11-20T06:45:56;16.70;;;13.48;;
32393;SDS011;18853;45.426;9.206;2022-11-20T06:48:22;19.17;;;13.25;;
32393;SDS011;18853;45.426;9.206;2022-11-20T06:50:49;17.40;;;13.30;;
32393;SDS011;18853;45.426;9.206;2022-11-20T06:53:15;16.10;;;12.27;;
32393;SDS011;18853;45.426;9.206;2022-11-20T06:55:47;18.35;;;13.55;;
32393;SDS011;18853;45.426;9.206;2022-11-20T06:58:14;14.77;;;12.15;;
32393;SDS011;18853;45.426;9.206;2022-11-20T07:00:40;15.30;;;12.15;;
32393;SDS011;18853;45.426;9.206;2022-11-20T07:03:06;16.98;;;12.40;;
32393;SDS011;18853;45.426;9.206;2022-11-20T07:05:33;15.38;;;12.73;;
32393;SDS011;18853;45.426;9.206;2022-11-20T07:08:00;17.75;;;13.40;;
32393;SDS011;18853;45.426;9.206;2022-11-20T07:10:26;17.52;;;12.85;;
32393;SDS011;18853;45.426;9.206;2022-11-20T07:12:52;18.25;;;13.40;;
32393;SDS011;18853;45.426;9.206;2022-11-20T07:15:19;16.08;;;12.38;;
32393;SDS011;18853;45.426;9.206;2022-11-20T07:17:45;16.20;;;11.85;;
32393;SDS011;18853;45.426;9.206;2022-11-20T07:20:12;15.00;;;12.20;;
32393;SDS011;18853;45.426;9.206;2022-11-20T07:22:38;13.93;;;11.50;;
32393;SDS011;18853;45.426;9.206;2022-11-20T07:25:03;14.43;;;11.68;;
32393;SDS011;18853;45.426;9.206;2022-11-20T07:27:29;15.80;;;11.15;;
32393;SDS011;18853;45.426;9.206;2022-11-20T07:29:55;13.15;;;11.75;;
32393;SDS011;18853;45.426;9.206;2022-11-20T07:32:21;15.00;;;11.82;;
32393;SDS011;18853;45.426;9.206;2022-11-20T07:34:47;14.85;;;12.32;;
32393;SDS011;18853;45.426;9.206;2022-11-20T07:37:13;15.40;;;12.07;;
32393;SDS011;18853;45.426;9.206;2022-11-20T07:39:39;16.05;;;12.95;;
32393;SDS011;18853;45.426;9.206;2022-11-20T07:42:08;14.63;;;11.77;;
32393;SDS011;18853;45.426;9.206;2022-11-20T07:44:34;16.27;;;12.52;;
32393;SDS011;18853;45.426;9.206;2022-11-20T07:47:00;22.75;;;16.00;;
32393;SDS011;18853;45.426;9.206;2022-11-20T07:49:26;26.98;;;13.68;;
32393;SDS011;18853;45.426;9.206;2022-11-20T07:51:51;24.67;;;13.80;;
32393;SDS011;18853;45.426;9.206;2022-11-20T07:54:20;18.73;;;12.48;;
32393;SDS011;18853;45.426;9.206;2022-11-20T07:56:46;16.30;;;12.15;;
32393;SDS011;18853;45.426;9.206;2022-11-20T07:59:13;17.38;;;13.65;;
32393;SDS011;18853;45.426;9.206;2022-11-20T08:01:39;17.58;;;13.63;;
32393;SDS011;18853;45.426;9.206;2022-11-20T08:04:05;19.83;;;14.70;;
32393;SDS011;18853;45.426;9.206;2022-11-20T08:06:31;17.73;;;14.13;;
32393;SDS011;18853;45.426;9.206;2022-11-20T08:08:57;17.10;;;13.52;;
32393;SDS011;18853;45.426;9.206;2022-11-20T08:11:22;17.52;;;13.50;;
32393;SDS011;18853;45.426;9.206;2022-11-20T08:14:07;17.25;;;13.68;;
32393;SDS011;18853;45.426;9.206;2022-11-20T08:19:05;19.20;;;14.15;;
32393;SDS011;18853;45.426;9.206;2022-11-20T08:24:06;17.55;;;13.80;;
32393;SDS011;18853;45.426;9.206;2022-11-20T08:26:35;17.85;;;13.55;;
32393;SDS011;18853;45.426;9.206;2022-11-20T08:29:02;22.42;;;15.57;;
32393;SDS011;18853;45.426;9.206;2022-11-20T08:31:28;20.98;;;15.43;;
32393;SDS011;18853;45.426;9.206;2022-11-20T08:33:55;17.35;;;14.70;;
32393;SDS011;18853;45.426;9.206;2022-11-20T08:36:21;22.42;;;15.75;;
32393;SDS011;18853;45.426;9.206;2022-11-20T08:38:49;21.15;;;15.95;;
32393;SDS011;18853;45.426;9.206;2022-11-20T08:41:16;20.27;;;15.05;;
32393;SDS011;18853;45.426;9.206;2022-11-20T08:43:59;20.38;;;16.23;;
32393;SDS011;18853;45.426;9.206;2022-11-20T08:46:26;20.58;;;15.88;;
32393;SDS011;18853;45.426;9.206;2022-11-20T08:49:02;22.35;;;15.65;;
32393;SDS011;18853;45.426;9.206;2022-11-20T08:51:29;20.10;;;15.30;;
32393;SDS011;18853;45.426;9.206;2022-11-20T08:53:55;22.33;;;15.80;;
32393;SDS011;18853;45.426;9.206;2022-11-20T08:56:20;20.13;;;15.70;;
32393;SDS011;18853;45.426;9.206;2022-11-20T08:58:46;19.48;;;14.63;;
32393;SDS011;18853;45.426;9.206;2022-11-20T09:01:11;17.00;;;13.00;;
32393;SDS011;18853;45.426;9.206;2022-11-20T09:03:37;18.00;;;13.10;;
32393;SDS011;18853;45.426;9.206;2022-11-20T09:06:04;18.85;;;13.40;;
32393;SDS011;18853;45.426;9.206;2022-11-20T09:08:31;17.80;;;12.63;;
32393;SDS011;18853;45.426;9.206;2022-11-20T09:10:58;15.13;;;12.57;;
32393;SDS011;18853;45.426;9.206;2022-11-20T09:13:24;16.80;;;13.10;;
32393;SDS011;18853;45.426;9.206;2022-11-20T09:15:59;15.60;;;12.98;;
32393;SDS011;18853;45.426;9.206;2022-11-20T09:18:26;19.15;;;12.38;;
32393;SDS011;18853;45.426;9.206;2022-11-20T09:20:56;17.20;;;13.00;;
32393;SDS011;18853;45.426;9.206;2022-11-20T09:23:26;19.65;;;13.52;;
32393;SDS011;18853;45.426;9.206;2022-11-20T09:25:55;17.15;;;13.32;;
32393;SDS011;18853;45.426;9.206;2022-11-20T09:28:24;16.42;;;13.05;;
32393;SDS011;18853;45.426;9.206;2022-11-20T09:30:50;17.98;;;13.23;;
32393;SDS011;18853;45.426;9.206;2022-11-20T09:33:16;18.10;;;13.35;;
32393;SDS011;18853;45.426;9.206;2022-11-20T09:35:42;16.58;;;12.38;;
32393;SDS011;18853;45.426;9.206;2022-11-20T09:38:09;16.30;;;12.10;;
32393;SDS011;18853;45.426;9.206;2022-11-20T09:40:36;16.00;;;12.63;;
32393;SDS011;18853;45.426;9.206;2022-11-20T09:43:17;17.42;;;13.05;;
32393;SDS011;18853;45.426;9.206;2022-11-20T09:51:52;16.75;;;12.02;;
32393;SDS011;18853;45.426;9.206;2022-11-20T09:54:19;15.93;;;11.20;;
32393;SDS011;18853;45.426;9.206;2022-11-20T09:56:49;17.10;;;10.93;;
32393;SDS011;18853;45.426;9.206;2022-11-20T09:59:29;19.02;;;11.65;;
32393;SDS011;18853;45.426;9.206;2022-11-20T10:02:12;15.75;;;10.63;;
32393;SDS011;18853;45.426;9.206;2022-11-20T10:07:52;32.35;;;13.82;;
32393;SDS011;18853;45.426;9.206;2022-11-20T10:10:40;16.52;;;10.55;;
32393;SDS011;18853;45.426;9.206;2022-11-20T10:21:55;12.10;;;9.32;;
32393;SDS011;18853;45.426;9.206;2022-11-20T10:24:43;14.50;;;10.00;;
32393;SDS011;18853;45.426;9.206;2022-11-20T10:30:07;12.18;;;9.25;;
32393;SDS011;18853;45.426;9.206;2022-11-20T10:32:36;11.93;;;9.23;;
32393;SDS011;18853;45.426;9.206;2022-11-20T10:37:40;12.27;;;9.32;;
32393;SDS011;18853;45.426;9.206;2022-11-20T10:43:08;12.93;;;7.85;;
32393;SDS011;18853;45.426;9.206;2022-11-20T10:45:53;12.00;;;8.32;;
32393;SDS011;18853;45.426;9.206;2022-11-20T10:48:26;11.80;;;8.53;;
32393;SDS011;18853;45.426;9.206;2022-11-20T10:56:53;13.93;;;8.90;;
32393;SDS011;18853;45.426;9.206;2022-11-20T11:02:18;12.95;;;8.30;;
32393;SDS011;18853;45.426;9.206;2022-11-20T11:04:46;11.23;;;7.37;;
32393;SDS011;18853;45.426;9.206;2022-11-20T11:07:30;12.15;;;7.65;;
32393;SDS011;18853;45.426;9.206;2022-11-20T11:10:15;10.93;;;7.63;;
32393;SDS011;18853;45.426;9.206;2022-11-20T11:13:00;11.05;;;7.53;;
32393;SDS011;18853;45.426;9.206;2022-11-20T11:15:27;13.82;;;8.75;;
32393;SDS011;18853;45.426;9.206;2022-11-20T11:18:04;13.88;;;9.05;;
32393;SDS011;18853;45.426;9.206;2022-11-20T11:20:30;15.00;;;10.50;;
32393;SDS011;18853;45.426;9.206;2022-11-20T11:22:57;14.45;;;10.43;;
32393;SDS011;18853;45.426;9.206;2022-11-20T11:30:39;14.73;;;10.50;;
32393;SDS011;18853;45.426;9.206;2022-11-20T11:33:09;16.05;;;11.18;;
32393;SDS011;18853;45.426;9.206;2022-11-20T11:35:46;15.25;;;10.13;;
32393;SDS011;18853;45.426;9.206;2022-11-20T11:43:30;14.63;;;10.30;;
32393;SDS011;18853;45.426;9.206;2022-11-20T11:48:58;31.90;;;22.52;;
32393;SDS011;18853;45.426;9.206;2022-11-20T11:57:52;41.25;;;29.60;;
32393;SDS011;18853;45.426;9.206;2022-11-20T12:00:09;36.88;;;24.95;;
32393;SDS011;18853;45.426;9.206;2022-11-20T12:07:46;20.48;;;14.90;;
32393;SDS011;18853;45.426;9.206;2022-11-20T12:15:58;21.38;;;14.38;;
32393;SDS011;18853;45.426;9.206;2022-11-20T12:18:25;13.35;;;9.90;;
32393;SDS011;18853;45.426;9.206;2022-11-20T12:23:40;15.00;;;10.98;;
32393;SDS011;18853;45.426;9.206;2022-11-20T12:37:19;11.07;;;9.10;;
32393;SDS011;18853;45.426;9.206;2022-11-20T12:43:11;12.75;;;8.38;;
32393;SDS011;18853;45.426;9.206;2022-11-20T12:49:08;11.50;;;8.43;;
32393;SDS011;18853;45.426;9.206;2022-11-20T12:51:54;11.95;;;8.27;;
32393;SDS011;18853;45.426;9.206;2022-11-20T12:54:54;10.80;;;8.27;;
32393;SDS011;18853;45.426;9.206;2022-11-20T12:57:46;10.85;;;8.30;;
32393;SDS011;18853;45.426;9.206;2022-11-20T13:00:29;10.57;;;8.18;;
32393;SDS011;18853;45.426;9.206;2022-11-20T13:08:08;47.38;;;33.05;;
32393;SDS011;18853;45.426;9.206;2022-11-20T13:13:29;10.07;;;7.75;;
32393;SDS011;18853;45.426;9.206;2022-11-20T13:16:10;11.63;;;7.55;;
32393;SDS011;18853;45.426;9.206;2022-11-20T13:18:40;12.52;;;7.63;;
32393;SDS011;18853;45.426;9.206;2022-11-20T13:21:14;10.52;;;7.03;;
32393;SDS011;18853;45.426;9.206;2022-11-20T13:23:41;9.20;;;6.38;;
32393;SDS011;18853;45.426;9.206;2022-11-20T13:26:19;9.13;;;6.85;;
32393;SDS011;18853;45.426;9.206;2022-11-20T13:28:58;9.88;;;6.80;;
32393;SDS011;18853;45.426;9.206;2022-11-20T13:31:36;11.18;;;7.28;;
32393;SDS011;18853;45.426;9.206;2022-11-20T13:34:09;9.27;;;6.70;;
32393;SDS011;18853;45.426;9.206;2022-11-20T13:36:57;7.88;;;6.28;;
32393;SDS011;18853;45.426;9.206;2022-11-20T13:39:35;24.77;;;15.68;;
32393;SDS011;18853;45.426;9.206;2022-11-20T13:44:42;24.08;;;18.80;;
32393;SDS011;18853;45.426;9.206;2022-11-20T13:47:21;21.92;;;17.48;;
32393;SDS011;18853;45.426;9.206;2022-11-20T13:49:49;11.20;;;7.75;;
32393;SDS011;18853;45.426;9.206;2022-11-20T14:01:23;7.70;;;5.90;;
32393;SDS011;18853;45.426;9.206;2022-11-20T14:03:39;8.35;;;5.47;;
32393;SDS011;18853;45.426;9.206;2022-11-20T14:06:10;7.65;;;5.20;;
32393;SDS011;18853;45.426;9.206;2022-11-20T14:08:56;19.15;;;12.50;;
32393;SDS011;18853;45.426;9.206;2022-11-20T14:11:27;8.68;;;5.13;;
32393;SDS011;18853;45.426;9.206;2022-11-20T14:14:00;5.47;;;4.20;;
32393;SDS011;18853;45.426;9.206;2022-11-20T14:16:28;7.20;;;4.53;;
32393;SDS011;18853;45.426;9.206;2022-11-20T14:18:56;4.93;;;3.42;;
32393;SDS011;18853;45.426;9.206;2022-11-20T14:21:49;7.63;;;4.13;;
32393;SDS011;18853;45.426;9.206;2022-11-20T14:24:20;5.53;;;3.65;;
32393;SDS011;18853;45.426;9.206;2022-11-20T14:26:47;5.55;;;3.58;;
32393;SDS011;18853;45.426;9.206;2022-11-20T14:29:15;4.95;;;3.40;;
32393;SDS011;18853;45.426;9.206;2022-11-20T14:31:43;5.97;;;3.28;;
32393;SDS011;18853;45.426;9.206;2022-11-20T14:34:13;7.28;;;2.97;;
32393;SDS011;18853;45.426;9.206;2022-11-20T14:36:45;4.53;;;3.20;;
32393;SDS011;18853;45.426;9.206;2022-11-20T14:39:12;6.05;;;3.40;;
32393;SDS011;18853;45.426;9.206;2022-11-20T14:41:53;5.88;;;3.47;;
32393;SDS011;18853;45.426;9.206;2022-11-20T14:44:30;7.78;;;4.00;;
32393;SDS011;18853;45.426;9.206;2022-11-20T14:46:58;6.95;;;4.15;;
32393;SDS011;18853;45.426;9.206;2022-11-20T14:49:25;6.93;;;5.07;;
32393;SDS011;18853;45.426;9.206;2022-11-20T14:52:00;14.90;;;9.13;;
32393;SDS011;18853;45.426;9.206;2022-11-20T14:54:27;9.18;;;6.05;;
32393;SDS011;18853;45.426;9.206;2022-11-20T14:59:28;6.55;;;4.57;;
32393;SDS011;18853;45.426;9.206;2022-11-20T15:01:59;6.05;;;4.10;;
32393;SDS011;18853;45.426;9.206;2022-11-20T15:04:28;11.55;;;5.70;;
32393;SDS011;18853;45.426;9.206;2022-11-20T15:06:54;34.60;;;28.90;;
32393;SDS011;18853;45.426;9.206;2022-11-20T15:09:22;24.55;;;20.40;;
32393;SDS011;18853;45.426;9.206;2022-11-20T15:11:55;28.15;;;22.75;;
32393;SDS011;18853;45.426;9.206;2022-11-20T15:14:25;35.70;;;30.10;;
32393;SDS011;18853;45.426;9.206;2022-11-20T15:16:53;13.43;;;8.80;;
32393;SDS011;18853;45.426;9.206;2022-11-20T15:19:20;45.35;;;35.17;;
32393;SDS011;18853;45.426;9.206;2022-11-20T15:21:47;11.98;;;8.40;;
32393;SDS011;18853;45.426;9.206;2022-11-20T15:24:13;9.38;;;6.45;;
32393;SDS011;18853;45.426;9.206;2022-11-20T15:26:39;15.43;;;7.72;;
32393;SDS011;18853;45.426;9.206;2022-11-20T15:29:09;7.50;;;5.10;;
32393;SDS011;18853;45.426;9.206;2022-11-20T15:31:36;19.77;;;15.68;;
32393;SDS011;18853;45.426;9.206;2022-11-20T15:34:07;14.18;;;9.38;;
32393;SDS011;18853;45.426;9.206;2022-11-20T15:36:39;13.48;;;9.25;;
32393;SDS011;18853;45.426;9.206;2022-11-20T15:39:05;14.95;;;10.45;;
32393;SDS011;18853;45.426;9.206;2022-11-20T15:41:35;10.35;;;7.07;;
32393;SDS011;18853;45.426;9.206;2022-11-20T15:44:01;11.00;;;6.82;;
32393;SDS011;18853;45.426;9.206;2022-11-20T15:46:28;25.08;;;17.75;;
32393;SDS011;18853;45.426;9.206;2022-11-20T15:48:58;31.88;;;23.42;;
32393;SDS011;18853;45.426;9.206;2022-11-20T15:51:33;30.05;;;21.20;;
32393;SDS011;18853;45.426;9.206;2022-11-20T15:54:00;9.50;;;5.50;;
32393;SDS011;18853;45.426;9.206;2022-11-20T15:56:28;8.30;;;5.03;;
32393;SDS011;18853;45.426;9.206;2022-11-20T15:58:54;8.52;;;5.35;;
32393;SDS011;18853;45.426;9.206;2022-11-20T16:01:20;8.27;;;5.18;;
32393;SDS011;18853;45.426;9.206;2022-11-20T16:03:47;8.95;;;6.35;;
32393;SDS011;18853;45.426;9.206;2022-11-20T16:06:13;8.60;;;6.03;;
32393;SDS011;18853;45.426;9.206;2022-11-20T16:08:43;10.65;;;6.53;;
32393;SDS011;18853;45.426;9.206;2022-11-20T16:11:13;8.43;;;5.60;;
32393;SDS011;18853;45.426;9.206;2022-11-20T16:13:40;8.63;;;6.63;;
32393;SDS011;18853;45.426;9.206;2022-11-20T16:16:26;10.55;;;7.47;;
32393;SDS011;18853;45.426;9.206;2022-11-20T16:18:55;10.20;;;7.47;;
32393;SDS011;18853;45.426;9.206;2022-11-20T16:21:21;10.68;;;7.85;;
32393;SDS011;18853;45.426;9.206;2022-11-20T16:23:52;12.30;;;8.57;;
32393;SDS011;18853;45.426;9.206;2022-11-20T16:26:18;10.70;;;7.53;;
32393;SDS011;18853;45.426;9.206;2022-11-20T16:28:45;11.15;;;7.43;;
32393;SDS011;18853;45.426;9.206;2022-11-20T16:31:12;11.00;;;7.50;;
32393;SDS011;18853;45.426;9.206;2022-11-20T16:33:40;11.38;;;7.38;;
32393;SDS011;18853;45.426;9.206;2022-11-20T16:36:07;25.65;;;19.25;;